sensor_id;sensor_type;location;lat;lon;timestamp;pressure;altitude;pressure_sealevel;temperature;humidity
2188;BME280;1100;52.014;8.540;2023-04-06T00:00:50;100461.13;;;-0.71;60.97
2188;BME280;1100;52.014;8.540;2023-04-06T00:03:16;100456.72;;;-0.76;61.01
2188;BME280;1100;52.014;8.540;2023-04-06T00:05:41;100451.97;;;-0.79;61.07
2188;BME280;1100;52.014;8.540;2023-04-06T00:08:07;100455.03;;;-0.80;61.19
2188;BME280;1100;52.014;8.540;2023-04-06T00:10:32;100444.13;;;-0.80;61.13
2188;BME280;1100;52.014;8.540;2023-04-06T00:12:59;100446.41;;;-0.82;61.04
2188;BME280;1100;52.014;8.540;2023-04-06T00:15:25;100433.44;;;-0.85;61.42
2188;BME280;1100;52.014;8.540;2023-04-06T00:17:50;100432.66;;;-0.86;61.06
2188;BME280;1100;52.014;8.540;2023-04-06T00:20:16;100423.69;;;-0.86;61.40
2188;BME280;1100;52.014;8.540;2023-04-06T00:22:42;100427.13;;;-0.90;61.41
2188;BME280;1100;52.014;8.540;2023-04-06T00:25:08;100422.38;;;-0.93;61.44
2188;BME280;1100;52.014;8.540;2023-04-06T00:27:35;100422.00;;;-0.91;61.56
2188;BME280;1100;52.014;8.540;2023-04-06T00:30:00;100421.22;;;-0.92;61.59
2188;BME280;1100;52.014;8.540;2023-04-06T00:32:25;100412.56;;;-0.94;61.46
2188;BME280;1100;52.014;8.540;2023-04-06T00:34:51;100417.25;;;-0.94;61.71
2188;BME280;1100;52.014;8.540;2023-04-06T00:37:16;100415.59;;;-0.99;61.41
2188;BME280;1100;52.014;8.540;2023-04-06T00:39:42;100413.28;;;-0.97;61.81
2188;BME280;1100;52.014;8.540;2023-04-06T00:42:11;100404.66;;;-0.99;61.80
2188;BME280;1100;52.014;8.540;2023-04-06T00:44:43;100402.19;;;-1.04;61.86
2188;BME280;1100;52.014;8.540;2023-04-06T00:47:08;100400.28;;;-1.04;61.63
2188;BME280;1100;52.014;8.540;2023-04-06T00:49:34;100399.13;;;-1.03;61.76
2188;BME280;1100;52.014;8.540;2023-04-06T00:52:00;100400.53;;;-1.09;61.80
2188;BME280;1100;52.014;8.540;2023-04-06T00:54:26;100400.16;;;-1.07;62.25
2188;BME280;1100;52.014;8.540;2023-04-06T00:56:52;100392.69;;;-1.10;61.93
2188;BME280;1100;52.014;8.540;2023-04-06T00:59:17;100392.50;;;-1.18;61.57
2188;BME280;1100;52.014;8.540;2023-04-06T01:01:43;100387.75;;;-1.21;62.00
2188;BME280;1100;52.014;8.540;2023-04-06T01:04:08;100393.47;;;-1.26;62.00
2188;BME280;1100;52.014;8.540;2023-04-06T01:06:34;100385.28;;;-1.26;62.44
2188;BME280;1100;52.014;8.540;2023-04-06T01:08:59;100381.69;;;-1.30;62.21
2188;BME280;1100;52.014;8.540;2023-04-06T01:11:25;100384.31;;;-1.34;62.38
2188;BME280;1100;52.014;8.540;2023-04-06T01:13:51;100388.59;;;-1.33;62.71
2188;BME280;1100;52.014;8.540;2023-04-06T01:16:17;100386.94;;;-1.38;62.63
2188;BME280;1100;52.014;8.540;2023-04-06T01:18:42;100379.09;;;-1.39;62.47
2188;BME280;1100;52.014;8.540;2023-04-06T01:21:08;100376.38;;;-1.39;62.45
2188;BME280;1100;52.014;8.540;2023-04-06T01:23:35;100372.16;;;-1.36;63.01
2188;BME280;1100;52.014;8.540;2023-04-06T01:26:00;100371.72;;;-1.39;62.59
2188;BME280;1100;52.014;8.540;2023-04-06T01:28:26;100366.16;;;-1.42;62.60
2188;BME280;1100;52.014;8.540;2023-04-06T01:30:51;100364.66;;;-1.40;62.98
2188;BME280;1100;52.014;8.540;2023-04-06T01:33:17;100365.81;;;-1.41;63.00
2188;BME280;1100;52.014;8.540;2023-04-06T01:35:42;100364.25;;;-1.42;62.74
2188;BME280;1100;52.014;8.540;2023-04-06T01:38:07;100359.47;;;-1.45;62.80
2188;BME280;1100;52.014;8.540;2023-04-06T01:40:33;100362.91;;;-1.48;62.96
2188;BME280;1100;52.014;8.540;2023-04-06T01:42:58;100353.81;;;-1.52;62.90
2188;BME280;1100;52.014;8.540;2023-04-06T01:45:24;100349.97;;;-1.51;62.86
2188;BME280;1100;52.014;8.540;2023-04-06T01:47:49;100341.00;;;-1.52;63.14
2188;BME280;1100;52.014;8.540;2023-04-06T01:50:15;100341.00;;;-1.52;63.24
2188;BME280;1100;52.014;8.540;2023-04-06T01:52:40;100348.38;;;-1.52;62.97
2188;BME280;1100;52.014;8.540;2023-04-06T01:55:06;100351.38;;;-1.57;62.93
2188;BME280;1100;52.014;8.540;2023-04-06T01:57:31;100334.22;;;-1.58;63.38
2188;BME280;1100;52.014;8.540;2023-04-06T01:59:57;100349.00;;;-1.59;63.22
2188;BME280;1100;52.014;8.540;2023-04-06T02:02:22;100344.59;;;-1.64;63.33
2188;BME280;1100;52.014;8.540;2023-04-06T02:04:47;100347.66;;;-1.65;63.46
2188;BME280;1100;52.014;8.540;2023-04-06T02:07:13;100341.41;;;-1.66;63.34
2188;BME280;1100;52.014;8.540;2023-04-06T02:09:38;100349.59;;;-1.66;63.63
2188;BME280;1100;52.014;8.540;2023-04-06T02:12:03;100340.25;;;-1.65;63.61
2188;BME280;1100;52.014;8.540;2023-04-06T02:14:29;100335.59;;;-1.64;63.40
2188;BME280;1100;52.014;8.540;2023-04-06T02:16:54;100342.75;;;-1.59;63.36
2188;BME280;1100;52.014;8.540;2023-04-06T02:19:20;100340.81;;;-1.59;63.47
2188;BME280;1100;52.014;8.540;2023-04-06T02:21:45;100343.53;;;-1.59;63.69
2188;BME280;1100;52.014;8.540;2023-04-06T02:24:11;100340.47;;;-1.57;63.85
2188;BME280;1100;52.014;8.540;2023-04-06T02:26:36;100344.31;;;-1.58;63.59
2188;BME280;1100;52.014;8.540;2023-04-06T02:29:01;100345.13;;;-1.58;63.84
2188;BME280;1100;52.014;8.540;2023-04-06T02:31:27;100336.84;;;-1.61;63.57
2188;BME280;1100;52.014;8.540;2023-04-06T02:33:52;100330.97;;;-1.64;63.58
2188;BME280;1100;52.014;8.540;2023-04-06T02:36:18;100337.19;;;-1.63;63.75
2188;BME280;1100;52.014;8.540;2023-04-06T02:38:43;100334.81;;;-1.65;63.89
2188;BME280;1100;52.014;8.540;2023-04-06T02:41:09;100334.63;;;-1.72;63.61
2188;BME280;1100;52.014;8.540;2023-04-06T02:43:34;100339.63;;;-1.74;63.80
2188;BME280;1100;52.014;8.540;2023-04-06T02:46:00;100336.81;;;-1.78;63.88
2188;BME280;1100;52.014;8.540;2023-04-06T02:48:25;100335.16;;;-1.82;63.65
2188;BME280;1100;52.014;8.540;2023-04-06T02:50:51;100331.50;;;-1.86;63.73
2188;BME280;1100;52.014;8.540;2023-04-06T02:53:19;100326.41;;;-1.88;63.87
2188;BME280;1100;52.014;8.540;2023-04-06T02:55:44;100334.84;;;-1.93;64.16
2188;BME280;1100;52.014;8.540;2023-04-06T02:58:12;100327.09;;;-1.91;64.38
2188;BME280;1100;52.014;8.540;2023-04-06T03:00:38;100329.94;;;-1.88;64.67
2188;BME280;1100;52.014;8.540;2023-04-06T03:03:03;100329.94;;;-1.88;64.13
2188;BME280;1100;52.014;8.540;2023-04-06T03:05:28;100334.94;;;-1.90;64.03
2188;BME280;1100;52.014;8.540;2023-04-06T03:07:54;100334.50;;;-1.92;64.25
2188;BME280;1100;52.014;8.540;2023-04-06T03:10:19;100333.25;;;-1.94;64.30
2188;BME280;1100;52.014;8.540;2023-04-06T03:12:45;100330.09;;;-1.96;64.43
2188;BME280;1100;52.014;8.540;2023-04-06T03:15:10;100331.91;;;-2.01;64.42
2188;BME280;1100;52.014;8.540;2023-04-06T03:17:36;100328.41;;;-2.01;64.55
2188;BME280;1100;52.014;8.540;2023-04-06T03:20:02;100335.09;;;-1.98;64.63
2188;BME280;1100;52.014;8.540;2023-04-06T03:22:28;100337.94;;;-1.95;64.76
2188;BME280;1100;52.014;8.540;2023-04-06T03:24:54;100334.16;;;-1.90;64.67
2188;BME280;1100;52.014;8.540;2023-04-06T03:27:19;100326.75;;;-1.90;64.61
2188;BME280;1100;52.014;8.540;2023-04-06T03:29:45;100328.72;;;-1.90;64.79
2188;BME280;1100;52.014;8.540;2023-04-06T03:32:11;100329.81;;;-1.91;64.66
2188;BME280;1100;52.014;8.540;2023-04-06T03:34:36;100324.72;;;-1.93;64.85
2188;BME280;1100;52.014;8.540;2023-04-06T03:37:01;100320.88;;;-1.92;64.52
2188;BME280;1100;52.014;8.540;2023-04-06T03:39:26;100321.22;;;-1.93;64.83
2188;BME280;1100;52.014;8.540;2023-04-06T03:41:52;100322.28;;;-1.98;64.57
2188;BME280;1100;52.014;8.540;2023-04-06T03:44:17;100321.47;;;-1.98;64.75
2188;BME280;1100;52.014;8.540;2023-04-06T03:46:45;100321.00;;;-2.01;64.94
2188;BME280;1100;52.014;8.540;2023-04-06T03:49:10;100318.22;;;-2.04;65.03
2188;BME280;1100;52.014;8.540;2023-04-06T03:51:36;100320.47;;;-2.06;64.77
2188;BME280;1100;52.014;8.540;2023-04-06T03:54:01;100315.38;;;-2.08;64.80
2188;BME280;1100;52.014;8.540;2023-04-06T03:56:26;100313.69;;;-2.13;64.91
2188;BME280;1100;52.014;8.540;2023-04-06T03:58:52;100319.59;;;-2.10;65.24
2188;BME280;1100;52.014;8.540;2023-04-06T04:01:17;100320.81;;;-2.08;64.80
2188;BME280;1100;52.014;8.540;2023-04-06T04:03:45;100320.81;;;-2.08;65.24
2188;BME280;1100;52.014;8.540;2023-04-06T04:06:11;100321.16;;;-2.09;65.07
2188;BME280;1100;52.014;8.540;2023-04-06T04:08:36;100330.56;;;-2.07;65.35
2188;BME280;1100;52.014;8.540;2023-04-06T04:11:01;100328.88;;;-2.11;65.25
2188;BME280;1100;52.014;8.540;2023-04-06T04:13:27;100324.59;;;-2.13;65.43
2188;BME280;1100;52.014;8.540;2023-04-06T04:15:52;100328.13;;;-2.12;65.48
2188;BME280;1100;52.014;8.540;2023-04-06T04:18:18;100325.41;;;-2.12;65.39
2188;BME280;1100;52.014;8.540;2023-04-06T04:20:43;100336.72;;;-2.10;65.37
2188;BME280;1100;52.014;8.540;2023-04-06T04:23:08;100330.84;;;-2.12;65.28
2188;BME280;1100;52.014;8.540;2023-04-06T04:25:34;100323.44;;;-2.11;65.32
2188;BME280;1100;52.014;8.540;2023-04-06T04:27:59;100329.34;;;-2.09;65.47
2188;BME280;1100;52.014;8.540;2023-04-06T04:30:25;100334.00;;;-2.10;65.33
2188;BME280;1100;52.014;8.540;2023-04-06T04:32:50;100326.16;;;-2.11;65.20
2188;BME280;1100;52.014;8.540;2023-04-06T04:35:15;100332.41;;;-2.11;65.20
2188;BME280;1100;52.014;8.540;2023-04-06T04:37:41;100320.38;;;-2.10;65.70
2188;BME280;1100;52.014;8.540;2023-04-06T04:40:07;100323.44;;;-2.11;65.54
2188;BME280;1100;52.014;8.540;2023-04-06T04:42:33;100320.63;;;-2.15;65.24
2188;BME280;1100;52.014;8.540;2023-04-06T04:44:59;100322.22;;;-2.14;65.58
2188;BME280;1100;52.014;8.540;2023-04-06T04:47:24;100321.88;;;-2.13;65.52
2188;BME280;1100;52.014;8.540;2023-04-06T04:49:50;100318.00;;;-2.11;65.33
2188;BME280;1100;52.014;8.540;2023-04-06T04:52:15;100315.97;;;-2.15;65.24
2188;BME280;1100;52.014;8.540;2023-04-06T04:54:40;100322.56;;;-2.16;65.50
2188;BME280;1100;52.014;8.540;2023-04-06T04:57:06;100320.97;;;-2.17;65.42
2188;BME280;1100;52.014;8.540;2023-04-06T04:59:32;100314.63;;;-2.21;65.34
2188;BME280;1100;52.014;8.540;2023-04-06T05:01:57;100334.84;;;-2.22;65.25
2188;BME280;1100;52.014;8.540;2023-04-06T05:04:22;100315.41;;;-2.20;65.65
2188;BME280;1100;52.014;8.540;2023-04-06T05:06:48;100327.19;;;-2.16;65.67
2188;BME280;1100;52.014;8.540;2023-04-06T05:09:16;100329.59;;;-2.15;65.54
2188;BME280;1100;52.014;8.540;2023-04-06T05:11:42;100330.72;;;-2.16;65.80
2188;BME280;1100;52.014;8.540;2023-04-06T05:14:07;100343.78;;;-2.09;65.72
2188;BME280;1100;52.014;8.540;2023-04-06T05:16:33;100335.69;;;-2.05;65.72
2188;BME280;1100;52.014;8.540;2023-04-06T05:18:59;100341.34;;;-1.98;66.10
2188;BME280;1100;52.014;8.540;2023-04-06T05:21:24;100336.97;;;-1.86;66.16
2188;BME280;1100;52.014;8.540;2023-04-06T05:23:51;100340.66;;;-1.79;66.00
2188;BME280;1100;52.014;8.540;2023-04-06T05:26:16;100342.81;;;-1.72;66.07
2188;BME280;1100;52.014;8.540;2023-04-06T05:28:42;100339.03;;;-1.67;66.11
2188;BME280;1100;52.014;8.540;2023-04-06T05:31:09;100340.81;;;-1.59;66.02
2188;BME280;1100;52.014;8.540;2023-04-06T05:33:34;100339.13;;;-1.47;66.22
2188;BME280;1100;52.014;8.540;2023-04-06T05:36:00;100340.13;;;-1.40;66.00
2188;BME280;1100;52.014;8.540;2023-04-06T05:38:26;100335.66;;;-1.32;66.03
2188;BME280;1100;52.014;8.540;2023-04-06T05:40:51;100338.66;;;-1.21;66.06
2188;BME280;1100;52.014;8.540;2023-04-06T05:43:16;100339.53;;;-1.17;66.17
2188;BME280;1100;52.014;8.540;2023-04-06T05:45:44;100337.25;;;-1.15;65.95
2188;BME280;1100;52.014;8.540;2023-04-06T05:48:09;100339.28;;;-1.11;65.87
2188;BME280;1100;52.014;8.540;2023-04-06T05:50:35;100346.41;;;-1.07;65.99
2188;BME280;1100;52.014;8.540;2023-04-06T05:53:00;100334.13;;;-0.97;66.03
2188;BME280;1100;52.014;8.540;2023-04-06T05:55:25;100332.00;;;-0.88;66.02
2188;BME280;1100;52.014;8.540;2023-04-06T05:57:51;100339.66;;;-0.77;65.79
2188;BME280;1100;52.014;8.540;2023-04-06T06:00:16;100331.63;;;-0.70;65.97
2188;BME280;1100;52.014;8.540;2023-04-06T06:02:42;100336.13;;;-0.61;66.00
2188;BME280;1100;52.014;8.540;2023-04-06T06:05:08;100329.28;;;-0.52;65.99
2188;BME280;1100;52.014;8.540;2023-04-06T06:07:33;100327.50;;;-0.44;66.24
2188;BME280;1100;52.014;8.540;2023-04-06T06:09:59;100331.69;;;-0.30;66.00
2188;BME280;1100;52.014;8.540;2023-04-06T06:12:24;100324.84;;;-0.20;65.98
2188;BME280;1100;52.014;8.540;2023-04-06T06:14:50;100327.44;;;-0.08;65.98
2188;BME280;1100;52.014;8.540;2023-04-06T06:17:15;100323.78;;;0.04;65.95
2188;BME280;1100;52.014;8.540;2023-04-06T06:19:40;100320.91;;;0.17;65.86
2188;BME280;1100;52.014;8.540;2023-04-06T06:22:06;100312.44;;;0.26;65.92
2188;BME280;1100;52.014;8.540;2023-04-06T06:24:31;100322.88;;;0.40;66.01
2188;BME280;1100;52.014;8.540;2023-04-06T06:26:57;100316.81;;;0.50;65.83
2188;BME280;1100;52.014;8.540;2023-04-06T06:29:22;100316.63;;;0.63;65.83
2188;BME280;1100;52.014;8.540;2023-04-06T06:31:49;100320.75;;;0.76;65.86
2188;BME280;1100;52.014;8.540;2023-04-06T06:34:15;100318.19;;;0.87;65.83
2188;BME280;1100;52.014;8.540;2023-04-06T06:36:41;100322.34;;;1.04;65.91
2188;BME280;1100;52.014;8.540;2023-04-06T06:39:07;100323.72;;;1.18;65.80
2188;BME280;1100;52.014;8.540;2023-04-06T06:41:33;100319.63;;;1.31;65.94
2188;BME280;1100;52.014;8.540;2023-04-06T06:43:58;100328.06;;;1.46;65.84
2188;BME280;1100;52.014;8.540;2023-04-06T06:46:25;100334.13;;;1.63;65.59
2188;BME280;1100;52.014;8.540;2023-04-06T06:48:50;100338.22;;;1.76;65.70
2188;BME280;1100;52.014;8.540;2023-04-06T06:51:15;100320.38;;;1.90;65.65
2188;BME280;1100;52.014;8.540;2023-04-06T06:53:41;100324.06;;;2.05;65.54
2188;BME280;1100;52.014;8.540;2023-04-06T06:56:07;100327.72;;;2.20;65.45
2188;BME280;1100;52.014;8.540;2023-04-06T06:58:33;100319.72;;;2.38;65.20
2188;BME280;1100;52.014;8.540;2023-04-06T07:00:59;100326.91;;;2.54;65.33
2188;BME280;1100;52.014;8.540;2023-04-06T07:03:25;100324.69;;;2.67;65.35
2188;BME280;1100;52.014;8.540;2023-04-06T07:05:52;100327.53;;;2.81;65.37
2188;BME280;1100;52.014;8.540;2023-04-06T07:08:22;100317.47;;;3.00;65.24
2188;BME280;1100;52.014;8.540;2023-04-06T07:10:50;100314.47;;;3.20;65.00
2188;BME280;1100;52.014;8.540;2023-04-06T07:13:18;100321.25;;;3.37;65.34
2188;BME280;1100;52.014;8.540;2023-04-06T07:15:48;100318.56;;;3.52;65.08
2188;BME280;1100;52.014;8.540;2023-04-06T07:18:14;100318.66;;;3.70;65.14
2188;BME280;1100;52.014;8.540;2023-04-06T07:20:39;100318.72;;;3.84;64.84
2188;BME280;1100;52.014;8.540;2023-04-06T07:23:05;100321.94;;;4.01;64.80
2188;BME280;1100;52.014;8.540;2023-04-06T07:25:30;100316.06;;;4.14;64.93
2188;BME280;1100;52.014;8.540;2023-04-06T07:27:56;100319.25;;;4.30;64.49
2188;BME280;1100;52.014;8.540;2023-04-06T07:30:21;100324.78;;;4.45;64.51
2188;BME280;1100;52.014;8.540;2023-04-06T07:32:47;100330.69;;;4.54;64.04
2188;BME280;1100;52.014;8.540;2023-04-06T07:35:13;100320.84;;;4.68;64.24
2188;BME280;1100;52.014;8.540;2023-04-06T07:37:39;100321.25;;;4.81;64.02
2188;BME280;1100;52.014;8.540;2023-04-06T07:40:05;100315.34;;;4.90;63.97
2188;BME280;1100;52.014;8.540;2023-04-06T07:42:31;100322.03;;;5.07;64.09
2188;BME280;1100;52.014;8.540;2023-04-06T07:44:58;100313.69;;;5.43;63.50
2188;BME280;1100;52.014;8.540;2023-04-06T07:47:23;100312.78;;;5.86;63.75
2188;BME280;1100;52.014;8.540;2023-04-06T07:49:48;100317.03;;;6.06;63.39
2188;BME280;1100;52.014;8.540;2023-04-06T07:52:14;100309.84;;;6.23;63.69
2188;BME280;1100;52.014;8.540;2023-04-06T07:54:40;100306.19;;;6.37;63.56
2188;BME280;1100;52.014;8.540;2023-04-06T07:57:06;100306.19;;;6.41;63.11
2188;BME280;1100;52.014;8.540;2023-04-06T07:59:31;100302.59;;;6.47;62.89
2188;BME280;1100;52.014;8.540;2023-04-06T08:01:57;100301.69;;;6.62;62.99
2188;BME280;1100;52.014;8.540;2023-04-06T08:04:23;100298.03;;;6.76;63.25
2188;BME280;1100;52.014;8.540;2023-04-06T08:06:48;100293.66;;;6.78;63.02
2188;BME280;1100;52.014;8.540;2023-04-06T08:09:13;100302.31;;;6.84;63.01
2188;BME280;1100;52.014;8.540;2023-04-06T08:11:39;100297.50;;;6.92;62.66
2188;BME280;1100;52.014;8.540;2023-04-06T08:14:04;100301.72;;;7.04;62.63
2188;BME280;1100;52.014;8.540;2023-04-06T08:16:29;100297.22;;;7.21;62.74
2188;BME280;1100;52.014;8.540;2023-04-06T08:18:55;100302.22;;;7.33;62.85
2188;BME280;1100;52.014;8.540;2023-04-06T08:21:22;100298.50;;;7.51;62.50
2188;BME280;1100;52.014;8.540;2023-04-06T08:23:47;100300.16;;;7.76;62.42
2188;BME280;1100;52.014;8.540;2023-04-06T08:26:12;100297.84;;;8.02;62.05
2188;BME280;1100;52.014;8.540;2023-04-06T08:28:38;100296.50;;;8.42;61.23
2188;BME280;1100;52.014;8.540;2023-04-06T08:31:04;100289.75;;;8.70;55.80
2188;BME280;1100;52.014;8.540;2023-04-06T08:33:30;100298.00;;;8.98;55.43
2188;BME280;1100;52.014;8.540;2023-04-06T08:35:56;100293.34;;;9.35;55.15
2188;BME280;1100;52.014;8.540;2023-04-06T08:38:21;100288.19;;;9.58;49.93
2188;BME280;1100;52.014;8.540;2023-04-06T08:40:47;100294.59;;;9.55;48.58
2188;BME280;1100;52.014;8.540;2023-04-06T08:43:17;100294.94;;;9.77;51.19
2188;BME280;1100;52.014;8.540;2023-04-06T08:45:43;100291.72;;;10.16;49.98
2188;BME280;1100;52.014;8.540;2023-04-06T08:48:11;100293.81;;;10.45;49.85
2188;BME280;1100;52.014;8.540;2023-04-06T08:50:38;100291.34;;;10.84;48.60
2188;BME280;1100;52.014;8.540;2023-04-06T08:53:03;100281.25;;;10.90;45.35
2188;BME280;1100;52.014;8.540;2023-04-06T08:55:30;100285.34;;;10.86;47.02
2188;BME280;1100;52.014;8.540;2023-04-06T08:57:56;100278.72;;;10.96;48.50
2188;BME280;1100;52.014;8.540;2023-04-06T09:00:22;100273.81;;;11.17;45.96
2188;BME280;1100;52.014;8.540;2023-04-06T09:02:49;100280.56;;;10.86;43.27
2188;BME280;1100;52.014;8.540;2023-04-06T09:05:15;100283.78;;;10.68;42.45
2188;BME280;1100;52.014;8.540;2023-04-06T09:07:40;100274.03;;;10.43;42.98
2188;BME280;1100;52.014;8.540;2023-04-06T09:10:06;100269.25;;;10.43;43.97
2188;BME280;1100;52.014;8.540;2023-04-06T09:12:32;100270.59;;;10.55;44.17
2188;BME280;1100;52.014;8.540;2023-04-06T09:14:58;100269.63;;;10.79;44.71
2188;BME280;1100;52.014;8.540;2023-04-06T09:17:26;100272.28;;;10.99;43.88
2188;BME280;1100;52.014;8.540;2023-04-06T09:19:52;100266.22;;;10.88;43.55
2188;BME280;1100;52.014;8.540;2023-04-06T09:22:18;100273.88;;;10.83;43.65
2188;BME280;1100;52.014;8.540;2023-04-06T09:27:10;100265.19;;;11.11;44.66
2188;BME280;1100;52.014;8.540;2023-04-06T09:29:36;100263.19;;;11.41;45.31
2188;BME280;1100;52.014;8.540;2023-04-06T09:32:05;100260.84;;;11.40;43.28
2188;BME280;1100;52.014;8.540;2023-04-06T09:34:32;100256.53;;;11.52;43.32
2188;BME280;1100;52.014;8.540;2023-04-06T09:36:57;100262.22;;;11.61;43.38
2188;BME280;1100;52.014;8.540;2023-04-06T09:39:23;100257.03;;;11.89;44.23
2188;BME280;1100;52.014;8.540;2023-04-06T09:41:53;100265.34;;;12.19;43.75
2188;BME280;1100;52.014;8.540;2023-04-06T09:44:19;100254.50;;;12.47;42.71
2188;BME280;1100;52.014;8.540;2023-04-06T09:46:46;100259.28;;;12.46;41.72
2188;BME280;1100;52.014;8.540;2023-04-06T09:49:13;100254.63;;;12.79;42.29
2188;BME280;1100;52.014;8.540;2023-04-06T09:51:40;100248.13;;;12.95;41.45
2188;BME280;1100;52.014;8.540;2023-04-06T09:54:07;100254.94;;;13.16;40.74
2188;BME280;1100;52.014;8.540;2023-04-06T09:56:56;100247.63;;;13.32;40.91
2188;BME280;1100;52.014;8.540;2023-04-06T09:59:50;100249.59;;;13.44;38.36
2188;BME280;1100;52.014;8.540;2023-04-06T10:05:31;100244.44;;;13.43;39.60
2188;BME280;1100;52.014;8.540;2023-04-06T10:08:05;100243.59;;;13.33;37.52
2188;BME280;1100;52.014;8.540;2023-04-06T10:10:32;100240.22;;;13.38;38.37
2188;BME280;1100;52.014;8.540;2023-04-06T10:12:58;100234.38;;;13.68;37.95
2188;BME280;1100;52.014;8.540;2023-04-06T10:15:23;100229.22;;;13.98;39.65
2188;BME280;1100;52.014;8.540;2023-04-06T10:17:50;100243.00;;;14.33;38.87
2188;BME280;1100;52.014;8.540;2023-04-06T10:20:46;100247.88;;;14.61;37.53
2188;BME280;1100;52.014;8.540;2023-04-06T10:23:19;100239.78;;;14.54;38.16
2188;BME280;1100;52.014;8.540;2023-04-06T10:25:55;100242.28;;;14.61;37.70
2188;BME280;1100;52.014;8.540;2023-04-06T10:28:21;100236.22;;;14.63;38.61
2188;BME280;1100;52.014;8.540;2023-04-06T10:30:46;100251.50;;;14.90;38.49
2188;BME280;1100;52.014;8.540;2023-04-06T10:33:19;100244.84;;;14.87;37.62
2188;BME280;1100;52.014;8.540;2023-04-06T10:35:45;100234.56;;;14.93;37.52
2188;BME280;1100;52.014;8.540;2023-04-06T10:38:11;100237.94;;;14.69;36.86
2188;BME280;1100;52.014;8.540;2023-04-06T10:40:40;100236.81;;;14.48;36.68
2188;BME280;1100;52.014;8.540;2023-04-06T10:43:12;100238.00;;;14.19;36.07
2188;BME280;1100;52.014;8.540;2023-04-06T10:45:38;100243.63;;;14.38;37.64
2188;BME280;1100;52.014;8.540;2023-04-06T10:48:14;100230.16;;;14.64;38.24
2188;BME280;1100;52.014;8.540;2023-04-06T10:50:41;100234.72;;;14.80;36.69
2188;BME280;1100;52.014;8.540;2023-04-06T10:53:07;100230.63;;;14.72;36.23
2188;BME280;1100;52.014;8.540;2023-04-06T10:55:32;100227.84;;;14.72;36.64
2188;BME280;1100;52.014;8.540;2023-04-06T10:57:58;100220.13;;;14.86;37.79
2188;BME280;1100;52.014;8.540;2023-04-06T11:00:24;100223.50;;;15.27;35.47
2188;BME280;1100;52.014;8.540;2023-04-06T11:02:49;100216.19;;;15.11;36.75
2188;BME280;1100;52.014;8.540;2023-04-06T11:05:15;100216.66;;;15.28;37.73
2188;BME280;1100;52.014;8.540;2023-04-06T11:07:41;100215.53;;;15.44;35.27
2188;BME280;1100;52.014;8.540;2023-04-06T11:10:07;100214.28;;;15.45;36.15
2188;BME280;1100;52.014;8.540;2023-04-06T11:12:33;100218.19;;;15.48;35.70
2188;BME280;1100;52.014;8.540;2023-04-06T11:15:03;100214.13;;;15.49;35.00
2188;BME280;1100;52.014;8.540;2023-04-06T11:17:37;100209.63;;;15.42;35.19
2188;BME280;1100;52.014;8.540;2023-04-06T11:20:03;100207.63;;;15.34;35.31
2188;BME280;1100;52.014;8.540;2023-04-06T11:22:29;100202.00;;;15.43;36.23
2188;BME280;1100;52.014;8.540;2023-04-06T11:25:07;100195.47;;;15.80;36.44
2188;BME280;1100;52.014;8.540;2023-04-06T11:27:34;100202.59;;;16.00;36.27
2188;BME280;1100;52.014;8.540;2023-04-06T11:30:01;100199.88;;;16.15;35.40
2188;BME280;1100;52.014;8.540;2023-04-06T11:32:27;100197.13;;;15.96;34.28
2188;BME280;1100;52.014;8.540;2023-04-06T11:34:52;100199.03;;;15.90;33.81
2188;BME280;1100;52.014;8.540;2023-04-06T11:37:18;100199.69;;;15.75;33.98
2188;BME280;1100;52.014;8.540;2023-04-06T11:39:49;100202.97;;;15.74;34.33
2188;BME280;1100;52.014;8.540;2023-04-06T11:42:28;100204.75;;;15.62;34.25
2188;BME280;1100;52.014;8.540;2023-04-06T11:44:58;100193.97;;;15.17;33.34
2188;BME280;1100;52.014;8.540;2023-04-06T11:47:35;100196.94;;;15.04;33.77
2188;BME280;1100;52.014;8.540;2023-04-06T11:50:11;100182.63;;;15.02;34.74
2188;BME280;1100;52.014;8.540;2023-04-06T11:52:38;100181.66;;;15.14;35.19
2188;BME280;1100;52.014;8.540;2023-04-06T11:55:36;100184.88;;;15.41;36.40
2188;BME280;1100;52.014;8.540;2023-04-06T11:58:02;100177.81;;;15.55;34.42
2188;BME280;1100;52.014;8.540;2023-04-06T12:00:28;100180.53;;;15.40;35.21
2188;BME280;1100;52.014;8.540;2023-04-06T12:02:59;100179.31;;;15.22;33.19
2188;BME280;1100;52.014;8.540;2023-04-06T12:05:25;100183.41;;;14.84;32.89
2188;BME280;1100;52.014;8.540;2023-04-06T12:07:50;100174.53;;;14.57;33.87
2188;BME280;1100;52.014;8.540;2023-04-06T12:10:16;100184.63;;;14.54;35.10
2188;BME280;1100;52.014;8.540;2023-04-06T12:12:41;100172.19;;;14.55;33.50
2188;BME280;1100;52.014;8.540;2023-04-06T12:15:07;100169.06;;;14.44;34.18
2188;BME280;1100;52.014;8.540;2023-04-06T12:17:32;100173.59;;;14.69;34.82
2188;BME280;1100;52.014;8.540;2023-04-06T12:19:58;100179.06;;;14.92;33.85
2188;BME280;1100;52.014;8.540;2023-04-06T12:22:23;100172.22;;;14.84;32.40
2188;BME280;1100;52.014;8.540;2023-04-06T12:24:48;100187.41;;;14.45;31.24
2188;BME280;1100;52.014;8.540;2023-04-06T12:27:14;100170.94;;;14.38;33.35
2188;BME280;1100;52.014;8.540;2023-04-06T12:29:39;100170.63;;;14.54;33.36
2188;BME280;1100;52.014;8.540;2023-04-06T12:32:05;100175.34;;;14.86;32.34
2188;BME280;1100;52.014;8.540;2023-04-06T12:34:31;100164.44;;;14.97;32.59
2188;BME280;1100;52.014;8.540;2023-04-06T12:36:56;100170.03;;;14.97;32.55
2188;BME280;1100;52.014;8.540;2023-04-06T12:39:22;100176.28;;;14.82;32.40
2188;BME280;1100;52.014;8.540;2023-04-06T12:41:47;100171.56;;;14.61;32.95
2188;BME280;1100;52.014;8.540;2023-04-06T12:44:13;100167.84;;;14.54;32.88
2188;BME280;1100;52.014;8.540;2023-04-06T12:46:38;100167.53;;;14.62;32.32
2188;BME280;1100;52.014;8.540;2023-04-06T12:49:03;100164.56;;;14.56;32.97
2188;BME280;1100;52.014;8.540;2023-04-06T12:51:29;100171.28;;;14.68;32.71
2188;BME280;1100;52.014;8.540;2023-04-06T12:53:56;100157.28;;;14.58;33.05
2188;BME280;1100;52.014;8.540;2023-04-06T12:56:21;100156.50;;;14.67;32.91
2188;BME280;1100;52.014;8.540;2023-04-06T12:58:47;100159.47;;;14.92;33.01
2188;BME280;1100;52.014;8.540;2023-04-06T13:01:13;100158.84;;;14.97;32.41
2188;BME280;1100;52.014;8.540;2023-04-06T13:03:39;100152.75;;;15.08;31.97
2188;BME280;1100;52.014;8.540;2023-04-06T13:06:05;100144.84;;;14.88;31.61
2188;BME280;1100;52.014;8.540;2023-04-06T13:08:31;100155.44;;;14.84;31.50
2188;BME280;1100;52.014;8.540;2023-04-06T13:10:56;100151.25;;;14.88;31.62
2188;BME280;1100;52.014;8.540;2023-04-06T13:13:26;100147.97;;;14.90;33.43